Time;durP1;ratioP1;P1;durP2;ratioP2;P2;SDS_P1;SDS_P2;PMS_P1;PMS_P2;Temp;Humidity;BMP_temperature;BMP_pressure;BME280_temperature;BME280_humidity;BME280_pressure;Samples;Min_cycle;Max_cycle;Signal;HPM_P1;HPM_P2
2023/01/08 00:01:17;;;;;;;1.37;0.47;;;7.90;1.00;;;;;;5082060;28;20512;-76
2023/01/08 00:03:47;;;;;;;1.08;0.57;;;7.90;1.00;;;;;;5070443;28;20427;-76
2023/01/08 00:06:17;;;;;;;0.35;0.35;;;7.90;1.00;;;;;;5073513;28;20466;-76
2023/01/08 00:08:44;;;;;;;0.65;0.60;;;7.90;1.00;;;;;;5076822;28;20427;-76
2023/01/08 00:11:12;;;;;;;0.70;0.70;;;7.90;1.00;;;;;;5081308;28;20435;-76
2023/01/08 00:13:39;;;;;;;2.20;0.63;;;7.90;1.00;;;;;;5104038;28;20489;-76
2023/01/08 00:16:08;;;;;;;1.13;0.60;;;7.90;1.00;;;;;;5087286;28;20918;-76
2023/01/08 00:18:36;;;;;;;0.40;0.40;;;8.00;1.00;;;;;;5095511;28;20430;-76
2023/01/08 00:21:04;;;;;;;0.40;0.40;;;8.00;1.00;;;;;;5109564;28;20428;-76
2023/01/08 00:23:31;;;;;;;0.35;0.35;;;8.00;1.00;;;;;;5091506;28;20481;-76
2023/01/08 00:26:03;;;;;;;0.70;0.43;;;8.10;1.00;;;;;;5083921;28;20846;-76
2023/01/08 00:28:30;;;;;;;0.20;0.20;;;8.20;1.00;;;;;;5078887;28;20919;-76
2023/01/08 00:30:57;;;;;;;1.30;0.40;;;8.30;1.00;;;;;;5097776;28;20434;-77
2023/01/08 00:33:24;;;;;;;0.80;0.80;;;8.40;1.00;;;;;;5082338;28;20423;-77
2023/01/08 00:35:51;;;;;;;2.72;0.50;;;8.40;1.00;;;;;;5094967;28;20427;-76
2023/01/08 00:38:17;;;;;;;0.20;0.20;;;8.40;1.00;;;;;;5090448;28;20433;-76
2023/01/08 00:40:44;;;;;;;0.45;0.45;;;8.40;1.00;;;;;;5077109;28;20514;-76
2023/01/08 00:43:11;;;;;;;0.35;0.35;;;8.40;1.00;;;;;;5073909;28;20442;-77
2023/01/08 00:45:41;;;;;;;0.30;0.30;;;8.30;1.00;;;;;;5078582;28;20918;-77
2023/01/08 00:48:09;;;;;;;0.35;0.35;;;8.20;1.00;;;;;;5088754;28;20825;-77
2023/01/08 00:50:36;;;;;;;0.40;0.40;;;8.20;1.00;;;;;;5095759;28;20444;-77
2023/01/08 00:53:06;;;;;;;0.50;0.50;;;8.20;1.00;;;;;;5098684;28;20473;-77
2023/01/08 00:55:33;;;;;;;0.40;0.40;;;8.10;1.00;;;;;;5080105;28;20430;-76
2023/01/08 00:58:02;;;;;;;0.50;0.30;;;8.10;1.00;;;;;;5088389;28;20438;-77
2023/01/08 01:00:29;;;;;;;0.40;0.40;;;8.10;1.00;;;;;;5078956;28;20817;-76
2023/01/08 01:02:55;;;;;;;0.63;0.63;;;8.10;1.00;;;;;;5088407;28;20786;-76
2023/01/08 01:05:22;;;;;;;0.80;0.80;;;8.00;1.00;;;;;;5090074;28;20418;-76
2023/01/08 01:07:49;;;;;;;0.52;0.52;;;8.00;1.00;;;;;;5089719;28;20420;-77
2023/01/08 01:10:16;;;;;;;0.40;0.40;;;8.00;1.00;;;;;;5096433;28;20429;-77
2023/01/08 01:12:43;;;;;;;0.47;0.47;;;8.00;1.00;;;;;;5083918;28;20486;-76
2023/01/08 01:15:16;;;;;;;0.30;0.30;;;8.00;99.90;;;;;;5090395;28;20438;-76
2023/01/08 01:17:45;;;;;;;1.83;0.70;;;7.90;99.90;;;;;;5092109;28;20424;-76
2023/01/08 01:20:15;;;;;;;0.30;0.30;;;7.90;99.90;;;;;;5096873;28;20512;-77
2023/01/08 01:22:42;;;;;;;0.77;0.47;;;7.90;99.90;;;;;;5091830;28;20619;-77
2023/01/08 01:25:09;;;;;;;1.60;1.10;;;7.90;99.90;;;;;;5078988;28;20490;-77
2023/01/08 01:27:36;;;;;;;0.70;0.70;;;7.90;99.90;;;;;;5089047;28;20512;-77
2023/01/08 01:30:04;;;;;;;0.70;0.70;;;7.80;99.90;;;;;;5091252;28;20426;-77
2023/01/08 01:32:31;;;;;;;0.55;0.55;;;7.80;99.90;;;;;;5077175;28;20514;-77
2023/01/08 01:34:57;;;;;;;0.40;0.40;;;7.70;99.90;;;;;;5075523;28;20438;-77
2023/01/08 01:37:27;;;;;;;0.63;0.63;;;7.70;99.90;;;;;;5080780;28;20426;-77
2023/01/08 01:39:55;;;;;;;0.60;0.60;;;7.80;99.90;;;;;;5086188;28;20437;-77
2023/01/08 01:42:39;;;;;;;2.70;1.00;;;7.80;99.90;;;;;;5080454;28;20419;-77
2023/01/08 01:45:21;;;;;;;0.65;0.63;;;7.80;99.90;;;;;;5077458;28;20513;-77
2023/01/08 01:47:58;;;;;;;0.70;0.57;;;7.80;99.90;;;;;;5093705;28;20423;-78
2023/01/08 01:50:37;;;;;;;3.80;0.40;;;7.80;99.90;;;;;;5108249;27;20435;-77
2023/01/08 01:53:27;;;;;;;0.82;0.77;;;7.80;99.90;;;;;;5082812;28;20513;-77
2023/01/08 01:55:56;;;;;;;0.70;0.70;;;7.80;99.90;;;;;;5072797;28;20867;-77
2023/01/08 01:58:25;;;;;;;0.50;0.50;;;7.70;99.90;;;;;;5083514;28;20421;-76
2023/01/08 02:00:54;;;;;;;1.10;0.95;;;7.70;99.90;;;;;;5096580;28;20439;-76
2023/01/08 02:03:28;;;;;;;0.68;0.68;;;7.70;99.90;;;;;;5104430;28;20480;-76
2023/01/08 02:06:13;;;;;;;0.30;0.30;;;7.60;1.00;;;;;;5096043;28;20452;-76
2023/01/08 02:09:01;;;;;;;0.30;0.30;;;7.60;1.00;;;;;;5087878;28;20475;-77
2023/01/08 02:11:44;;;;;;;1.00;0.50;;;7.60;1.00;;;;;;5088605;28;20456;-77
2023/01/08 02:14:20;;;;;;;1.00;0.93;;;7.50;1.00;;;;;;5088445;28;20439;-76
2023/01/08 02:16:56;;;;;;;0.57;0.57;;;7.50;1.00;;;;;;5083951;28;20436;-76
2023/01/08 02:19:35;;;;;;;0.40;0.40;;;7.50;45.50;;;;;;5095918;28;20432;-76
2023/01/08 02:22:11;;;;;;;0.60;0.60;;;7.50;99.90;;;;;;5078060;28;20429;-76
2023/01/08 02:24:52;;;;;;;0.47;0.47;;;7.50;99.90;;;;;;5080281;28;20446;-75
2023/01/08 02:27:22;;;;;;;0.40;0.40;;;7.40;99.90;;;;;;5073821;28;20463;-75
2023/01/08 02:29:52;;;;;;;1.80;0.40;;;7.40;1.00;;;;;;5082214;28;20430;-75
2023/01/08 02:32:25;;;;;;;1.48;0.40;;;7.30;1.00;;;;;;5082345;28;20523;-75
2023/01/08 02:34:53;;;;;;;0.30;0.30;;;7.30;99.90;;;;;;5081016;28;20424;-75
2023/01/08 02:37:20;;;;;;;0.50;0.50;;;7.20;1.00;;;;;;5084810;28;20917;-76
2023/01/08 02:40:27;;;;;;;0.57;0.40;;;7.20;99.90;;;;;;5094336;28;20423;-76
2023/01/08 02:43:12;;;;;;;0.47;0.47;;;7.10;1.00;;;;;;5072827;28;20517;-76
2023/01/08 02:45:53;;;;;;;0.68;0.68;;;7.10;99.90;;;;;;5102256;28;20904;-76
2023/01/08 02:48:46;;;;;;;0.90;0.53;;;7.10;99.90;;;;;;5085184;28;20432;-76
2023/01/08 02:51:36;;;;;;;0.80;0.52;;;7.00;1.00;;;;;;5092098;28;20455;-77
2023/01/08 02:54:15;;;;;;;0.52;0.47;;;7.00;99.90;;;;;;5063747;28;20515;-78
2023/01/08 02:56:50;;;;;;;0.43;0.40;;;7.00;1.00;;;;;;5074633;28;20428;-76
2023/01/08 02:59:18;;;;;;;0.88;0.22;;;6.90;99.90;;;;;;5084650;28;20419;-77
2023/01/08 03:01:46;;;;;;;0.55;0.50;;;6.90;1.00;;;;;;5080808;28;20431;-77
2023/01/08 03:04:17;;;;;;;0.65;0.65;;;6.90;1.00;;;;;;5101556;28;20423;-77
2023/01/08 03:06:47;;;;;;;1.52;0.40;;;6.90;1.00;;;;;;5073078;28;20420;-77
2023/01/08 03:09:15;;;;;;;0.70;0.65;;;6.90;99.90;;;;;;5086144;28;20430;-77
2023/01/08 03:12:10;;;;;;;0.47;0.47;;;6.80;99.90;;;;;;5078966;28;20438;-77
2023/01/08 03:14:45;;;;;;;0.60;0.60;;;6.90;99.90;;;;;;5101659;28;20420;-77
2023/01/08 03:17:25;;;;;;;0.35;0.35;;;6.90;99.90;;;;;;5082348;28;20428;-77
2023/01/08 03:20:17;;;;;;;0.40;0.40;;;6.80;1.00;;;;;;5087980;28;20433;-78
2023/01/08 03:22:51;;;;;;;0.77;0.77;;;6.80;1.00;;;;;;5090721;28;20454;-78
2023/01/08 03:25:21;;;;;;;0.30;0.20;;;6.80;1.00;;;;;;5069829;28;21120;-77
2023/01/08 03:27:54;;;;;;;1.40;0.70;;;6.80;1.00;;;;;;5079546;28;20427;-77
2023/01/08 03:30:23;;;;;;;0.20;0.20;;;6.80;1.00;;;;;;5096891;27;20426;-77
2023/01/08 03:32:56;;;;;;;0.88;0.60;;;6.80;1.00;;;;;;5090949;28;20432;-77
2023/01/08 03:35:23;;;;;;;0.30;0.30;;;6.80;1.00;;;;;;5079822;28;20427;-77
2023/01/08 03:38:02;;;;;;;1.20;0.65;;;6.80;1.00;;;;;;5083840;28;20963;-77
2023/01/08 03:40:34;;;;;;;0.40;0.40;;;6.90;1.00;;;;;;5093788;28;20803;-77
2023/01/08 03:43:00;;;;;;;0.50;0.50;;;6.90;1.00;;;;;;5104473;28;20508;-77
2023/01/08 03:45:30;;;;;;;0.80;0.30;;;6.90;1.00;;;;;;5098978;28;20431;-77
2023/01/08 03:47:59;;;;;;;1.15;0.68;;;6.90;1.00;;;;;;5096591;27;20424;-77
2023/01/08 03:50:30;;;;;;;0.25;0.25;;;6.90;1.00;;;;;;5090426;28;20440;-77
2023/01/08 03:52:56;;;;;;;0.75;0.60;;;6.90;1.00;;;;;;5093044;28;20428;-76
2023/01/08 03:55:26;;;;;;;0.30;0.30;;;6.90;1.00;;;;;;5093263;28;20429;-77
2023/01/08 03:57:53;;;;;;;0.75;0.40;;;6.80;1.00;;;;;;5098545;28;20431;-76
2023/01/08 04:00:19;;;;;;;0.20;0.20;;;6.80;1.00;;;;;;5102489;28;20858;-76
2023/01/08 04:02:48;;;;;;;1.13;0.60;;;6.80;1.00;;;;;;5092946;27;20424;-76
2023/01/08 04:05:15;;;;;;;0.40;0.30;;;6.80;1.00;;;;;;5099785;27;20460;-76
2023/01/08 04:07:45;;;;;;;0.32;0.30;;;6.80;1.00;;;;;;5099886;28;20419;-77
2023/01/08 04:10:11;;;;;;;0.50;0.50;;;6.80;1.00;;;;;;5097833;27;20511;-77
2023/01/08 04:12:41;;;;;;;0.13;0.13;;;6.80;1.00;;;;;;5102308;27;20429;-77
2023/01/08 04:15:09;;;;;;;0.70;0.52;;;6.70;7.60;;;;;;5091646;28;20427;-77
2023/01/08 04:17:35;;;;;;;0.30;0.30;;;6.70;15.40;;;;;;5093784;28;21098;-77
2023/01/08 04:20:05;;;;;;;0.45;0.45;;;6.70;28.80;;;;;;5089038;28;20872;-77
2023/01/08 04:22:35;;;;;;;0.32;0.32;;;6.80;45.20;;;;;;5106570;27;20429;-77
2023/01/08 04:25:01;;;;;;;0.20;0.20;;;6.80;56.00;;;;;;5091684;28;20431;-76
2023/01/08 04:27:28;;;;;;;0.40;0.40;;;6.80;68.60;;;;;;5095130;28;20922;-76
2023/01/08 04:29:55;;;;;;;1.40;0.70;;;6.80;74.90;;;;;;5084077;28;20431;-77
2023/01/08 04:32:22;;;;;;;0.20;0.20;;;6.80;90.70;;;;;;5097832;28;20430;-76
2023/01/08 04:34:55;;;;;;;0.50;0.50;;;6.80;98.50;;;;;;5090074;27;20424;-76
2023/01/08 04:37:21;;;;;;;0.80;0.50;;;6.80;99.90;;;;;;5103093;28;20766;-76
2023/01/08 04:39:48;;;;;;;0.38;0.38;;;6.80;99.90;;;;;;5105926;28;20415;-77
2023/01/08 04:42:15;;;;;;;1.00;0.57;;;6.90;99.90;;;;;;5103476;27;20427;-76
2023/01/08 04:44:41;;;;;;;0.20;0.20;;;6.90;99.90;;;;;;5090942;28;20426;-76
2023/01/08 04:47:08;;;;;;;0.38;0.38;;;6.90;99.90;;;;;;5102960;27;20421;-76
2023/01/08 04:49:35;;;;;;;0.50;0.50;;;6.90;99.90;;;;;;5094708;28;20789;-76
2023/01/08 04:52:04;;;;;;;0.13;0.13;;;6.90;99.90;;;;;;5089025;28;20458;-77
2023/01/08 04:54:31;;;;;;;0.10;0.10;;;6.90;99.90;;;;;;5093047;28;20429;-76
2023/01/08 04:56:58;;;;;;;0.70;0.50;;;6.90;99.90;;;;;;5095218;28;21163;-77
2023/01/08 04:59:24;;;;;;;0.83;0.60;;;6.90;99.90;;;;;;5102916;28;20426;-76
2023/01/08 05:01:51;;;;;;;0.30;0.30;;;6.90;99.90;;;;;;5103264;28;20468;-76
2023/01/08 05:04:18;;;;;;;0.35;0.35;;;6.90;99.90;;;;;;5096126;28;20440;-77
2023/01/08 05:06:45;;;;;;;0.28;0.28;;;6.90;99.90;;;;;;5095861;28;20427;-77
2023/01/08 05:09:12;;;;;;;0.40;0.40;;;6.90;99.90;;;;;;5105241;28;20424;-77
2023/01/08 05:11:38;;;;;;;0.10;0.10;;;6.90;99.90;;;;;;5080364;28;20428;-77
2023/01/08 05:14:05;;;;;;;0.30;0.30;;;6.90;99.90;;;;;;5090512;28;20433;-76
2023/01/08 05:16:32;;;;;;;0.10;0.10;;;6.90;99.90;;;;;;5073715;28;20442;-76
2023/01/08 05:18:59;;;;;;;0.40;0.40;;;6.90;99.90;;;;;;5086146;28;20435;-76
2023/01/08 05:21:25;;;;;;;0.50;0.40;;;6.90;99.90;;;;;;5092139;28;20907;-76
2023/01/08 05:23:52;;;;;;;1.30;0.40;;;6.90;99.90;;;;;;5089613;28;20433;-76
2023/01/08 05:26:19;;;;;;;0.70;0.20;;;6.90;99.90;;;;;;5099629;28;20428;-75
2023/01/08 05:28:46;;;;;;;0.20;0.20;;;6.90;99.90;;;;;;5090534;28;20429;-75
2023/01/08 05:31:13;;;;;;;0.20;0.20;;;6.90;99.90;;;;;;5092806;28;20789;-76
2023/01/08 05:33:39;;;;;;;0.15;0.15;;;6.90;99.90;;;;;;5094836;28;20551;-76
2023/01/08 05:36:08;;;;;;;0.40;0.40;;;6.90;99.90;;;;;;5080485;28;21053;-75
2023/01/08 05:38:35;;;;;;;0.10;0.10;;;6.90;99.90;;;;;;5091833;28;20441;-75
2023/01/08 05:41:02;;;;;;;0.20;0.20;;;6.90;99.90;;;;;;5088131;28;20542;-75
2023/01/08 05:43:29;;;;;;;0.60;0.22;;;6.90;99.90;;;;;;5100149;28;20433;-75
2023/01/08 05:46:00;;;;;;;0.30;0.30;;;6.80;99.90;;;;;;5104186;28;20436;-76
2023/01/08 05:48:29;;;;;;;0.10;0.10;;;6.80;99.90;;;;;;5091704;28;20559;-75
2023/01/08 05:50:55;;;;;;;0.32;0.32;;;6.90;99.90;;;;;;5097162;28;20435;-77
2023/01/08 05:53:22;;;;;;;0.30;0.30;;;6.90;99.90;;;;;;5071251;28;20510;-75
2023/01/08 05:55:49;;;;;;;0.50;0.50;;;6.90;99.90;;;;;;5084332;28;20443;-76
2023/01/08 05:58:18;;;;;;;0.50;0.50;;;6.80;99.90;;;;;;5080177;28;20443;-75
2023/01/08 06:00:45;;;;;;;1.30;0.47;;;6.90;99.90;;;;;;5081292;28;20428;-75
2023/01/08 06:03:11;;;;;;;0.43;0.43;;;6.90;99.90;;;;;;5099368;28;20446;-75
2023/01/08 06:05:38;;;;;;;0.70;0.30;;;6.90;99.90;;;;;;5083675;28;20451;-76
2023/01/08 06:08:05;;;;;;;0.50;0.50;;;6.90;99.90;;;;;;5077267;28;20426;-75
2023/01/08 06:10:36;;;;;;;1.50;0.20;;;6.90;99.90;;;;;;5085921;28;20823;-75
2023/01/08 06:13:09;;;;;;;0.40;0.30;;;6.90;99.90;;;;;;5073108;28;20466;-75
2023/01/08 06:15:39;;;;;;;0.50;0.50;;;6.90;99.90;;;;;;5084850;28;20424;-75
2023/01/08 06:18:06;;;;;;;0.30;0.20;;;6.90;99.90;;;;;;5090941;28;20503;-75
2023/01/08 06:20:33;;;;;;;0.60;0.30;;;6.90;99.90;;;;;;5082628;28;20434;-76
2023/01/08 06:22:59;;;;;;;0.40;0.40;;;6.90;99.90;;;;;;5080919;28;20488;-76
2023/01/08 06:25:28;;;;;;;0.30;0.30;;;6.90;99.90;;;;;;5085062;28;20449;-75
2023/01/08 06:28:00;;;;;;;0.30;0.30;;;6.90;99.90;;;;;;5087420;28;20479;-74
2023/01/08 06:30:27;;;;;;;0.40;0.40;;;6.90;99.90;;;;;;5094661;28;20517;-75
2023/01/08 06:32:57;;;;;;;0.32;0.32;;;6.90;99.90;;;;;;5085858;28;21172;-74
2023/01/08 06:35:24;;;;;;;0.40;0.40;;;6.90;99.90;;;;;;5076863;28;20470;-75
2023/01/08 06:37:53;;;;;;;0.30;0.30;;;6.90;99.90;;;;;;5069924;28;20778;-75
2023/01/08 06:40:20;;;;;;;0.20;0.20;;;6.90;99.90;;;;;;5087079;28;20909;-72
2023/01/08 06:42:46;;;;;;;0.30;0.30;;;6.90;99.90;;;;;;5080333;28;20428;-72
2023/01/08 06:45:13;;;;;;;0.43;0.43;;;7.00;99.90;;;;;;5077549;28;20427;-73
2023/01/08 06:47:40;;;;;;;0.30;0.30;;;7.00;99.90;;;;;;5094001;28;20424;-72
2023/01/08 06:50:08;;;;;;;0.32;0.32;;;7.00;99.90;;;;;;5094276;28;21184;-73
2023/01/08 06:52:35;;;;;;;0.40;0.40;;;7.00;99.90;;;;;;5088983;28;21325;-73
2023/01/08 06:55:03;;;;;;;0.20;0.20;;;7.00;99.90;;;;;;5074998;28;20435;-72
2023/01/08 06:57:30;;;;;;;0.43;0.43;;;7.00;99.90;;;;;;5091610;28;21003;-73
2023/01/08 06:59:57;;;;;;;0.20;0.20;;;7.00;99.90;;;;;;5082271;28;20428;-73
2023/01/08 07:02:26;;;;;;;0.05;0.05;;;6.90;99.90;;;;;;5092731;28;20426;-73
2023/01/08 07:04:53;;;;;;;0.30;0.30;;;6.90;99.90;;;;;;5109894;28;20467;-73
2023/01/08 07:07:22;;;;;;;0.15;0.10;;;6.90;99.90;;;;;;5099797;28;20420;-73
2023/01/08 07:09:49;;;;;;;0.10;0.10;;;7.00;99.90;;;;;;5103029;28;20951;-73
2023/01/08 07:12:15;;;;;;;0.30;0.30;;;6.90;99.90;;;;;;5083680;28;20431;-72
2023/01/08 07:14:44;;;;;;;0.50;0.50;;;7.00;99.90;;;;;;5097006;28;20426;-73
2023/01/08 07:17:11;;;;;;;0.90;0.20;;;7.00;99.90;;;;;;5089197;28;21183;-73
2023/01/08 07:19:38;;;;;;;0.13;0.13;;;7.00;99.90;;;;;;5088827;28;20428;-73
2023/01/08 07:22:05;;;;;;;0.13;0.13;;;7.00;99.90;;;;;;5084762;28;20424;-73
2023/01/08 07:24:31;;;;;;;0.20;0.20;;;7.00;99.90;;;;;;5091407;28;20432;-73
2023/01/08 07:26:58;;;;;;;0.10;0.10;;;7.00;99.90;;;;;;5082384;28;21310;-74
2023/01/08 07:29:26;;;;;;;0.20;0.20;;;7.00;99.90;;;;;;5088412;28;20430;-74
2023/01/08 07:31:52;;;;;;;0.10;0.10;;;7.00;99.90;;;;;;5074913;28;20430;-74
2023/01/08 07:34:19;;;;;;;0.10;0.10;;;6.90;99.90;;;;;;5077322;28;20930;-73
2023/01/08 07:36:46;;;;;;;0.10;0.10;;;7.00;99.90;;;;;;5083968;28;20432;-74
2023/01/08 07:39:12;;;;;;;0.40;0.40;;;6.90;99.90;;;;;;5091088;28;20441;-73
2023/01/08 07:41:39;;;;;;;0.30;0.30;;;6.90;99.90;;;;;;5083998;28;20465;-73
2023/01/08 07:44:10;;;;;;;0.45;0.38;;;6.90;99.90;;;;;;5085443;28;20443;-73
2023/01/08 07:46:36;;;;;;;0.30;0.20;;;6.90;99.90;;;;;;5097053;28;20924;-73
2023/01/08 07:49:04;;;;;;;0.28;0.28;;;6.90;99.90;;;;;;5091624;28;20523;-73
2023/01/08 07:51:31;;;;;;;0.05;0.05;;;6.90;99.90;;;;;;5072790;28;20512;-74
2023/01/08 07:53:58;;;;;;;1.35;0.60;;;6.90;99.90;;;;;;5081869;28;20478;-74
2023/01/08 07:56:27;;;;;;;0.28;0.28;;;6.90;99.90;;;;;;5095792;28;20432;-73
2023/01/08 07:58:54;;;;;;;0.20;0.20;;;7.00;99.90;;;;;;5093741;28;20436;-74
2023/01/08 08:01:21;;;;;;;0.60;0.60;;;7.00;99.90;;;;;;5097985;28;20444;-74
2023/01/08 08:03:48;;;;;;;0.10;0.10;;;7.00;99.90;;;;;;5090716;28;20481;-74
2023/01/08 08:06:15;;;;;;;0.00;0.00;;;7.00;99.90;;;;;;5097082;28;20768;-73
2023/01/08 08:08:42;;;;;;;0.47;0.47;;;7.00;99.90;;;;;;5082919;28;20433;-74
2023/01/08 08:11:12;;;;;;;0.60;0.40;;;7.00;99.90;;;;;;5084735;28;20433;-73
2023/01/08 08:13:43;;;;;;;0.28;0.28;;;7.00;99.90;;;;;;5085206;28;20426;-73
2023/01/08 08:16:12;;;;;;;0.47;0.40;;;7.00;99.90;;;;;;5067826;28;20419;-74
2023/01/08 08:18:39;;;;;;;0.30;0.20;;;7.00;99.90;;;;;;5097830;28;20512;-73
2023/01/08 08:21:06;;;;;;;0.40;0.40;;;7.00;99.90;;;;;;5090112;28;20436;-74
2023/01/08 08:23:34;;;;;;;0.55;0.35;;;7.00;99.90;;;;;;5084901;28;20427;-73
2023/01/08 08:26:03;;;;;;;0.70;0.50;;;7.00;99.90;;;;;;5086659;28;20446;-73
2023/01/08 08:28:30;;;;;;;0.45;0.28;;;7.00;99.90;;;;;;5095142;28;20431;-73
2023/01/08 08:30:57;;;;;;;0.35;0.35;;;7.00;99.90;;;;;;5083773;28;20461;-73
2023/01/08 08:33:24;;;;;;;0.70;0.30;;;7.00;99.90;;;;;;5083654;28;20435;-74
2023/01/08 08:35:50;;;;;;;0.30;0.30;;;7.00;99.90;;;;;;5078065;28;20426;-73
2023/01/08 08:38:20;;;;;;;1.10;0.40;;;7.00;99.90;;;;;;5095823;28;20426;-73
2023/01/08 08:40:49;;;;;;;0.25;0.25;;;7.10;99.90;;;;;;5101138;28;20485;-74
2023/01/08 08:43:16;;;;;;;1.70;0.30;;;7.10;99.90;;;;;;5101185;28;20443;-73
2023/01/08 08:45:43;;;;;;;0.28;0.28;;;7.10;99.90;;;;;;5083712;28;20428;-73
2023/01/08 08:48:15;;;;;;;0.50;0.20;;;7.10;99.90;;;;;;5086635;28;20431;-73
2023/01/08 08:50:42;;;;;;;0.20;0.10;;;7.10;99.90;;;;;;5078373;28;20428;-73
2023/01/08 08:53:09;;;;;;;0.30;0.30;;;7.10;99.90;;;;;;5101509;28;20435;-73
2023/01/08 08:55:36;;;;;;;0.55;0.55;;;7.10;99.90;;;;;;5089610;28;20432;-73
2023/01/08 08:58:09;;;;;;;0.20;0.20;;;7.10;99.90;;;;;;5087980;28;20515;-74
2023/01/08 09:00:38;;;;;;;0.10;0.10;;;7.10;99.90;;;;;;5093789;28;20434;-73
2023/01/08 09:03:05;;;;;;;0.20;0.20;;;7.10;99.90;;;;;;5078981;28;20431;-74
2023/01/08 09:05:35;;;;;;;0.30;0.30;;;7.20;99.90;;;;;;5088933;28;20427;-73
2023/01/08 09:08:02;;;;;;;0.32;0.32;;;7.20;99.90;;;;;;5112688;28;20964;-74
2023/01/08 09:10:29;;;;;;;0.30;0.30;;;7.20;99.90;;;;;;5105562;28;20424;-74
2023/01/08 09:12:55;;;;;;;0.30;0.30;;;7.20;99.90;;;;;;5072085;28;20510;-73
2023/01/08 09:15:22;;;;;;;0.30;0.20;;;7.20;99.90;;;;;;5086722;28;20429;-74
2023/01/08 09:17:56;;;;;;;0.30;0.30;;;7.20;99.90;;;;;;5084685;28;20432;-73
2023/01/08 09:20:25;;;;;;;0.30;0.30;;;7.20;99.90;;;;;;5092413;28;20431;-73
2023/01/08 09:22:52;;;;;;;0.80;0.50;;;7.20;99.90;;;;;;5095925;28;21094;-74
2023/01/08 09:25:19;;;;;;;0.03;0.03;;;7.20;99.90;;;;;;5087452;28;20801;-74
2023/01/08 09:27:45;;;;;;;0.10;0.10;;;7.20;99.90;;;;;;5077055;28;20435;-73
2023/01/08 09:30:12;;;;;;;0.13;0.13;;;7.30;99.90;;;;;;5081765;28;20429;-73
2023/01/08 09:32:39;;;;;;;0.20;0.10;;;7.30;99.90;;;;;;5091533;28;20439;-74
2023/01/08 09:35:06;;;;;;;0.28;0.28;;;7.30;99.90;;;;;;5095459;28;20916;-74
2023/01/08 09:37:33;;;;;;;0.20;0.20;;;7.40;99.90;;;;;;5102784;28;20428;-73
2023/01/08 09:40:00;;;;;;;0.50;0.15;;;7.40;99.90;;;;;;5083989;28;20438;-74
2023/01/08 09:42:30;;;;;;;0.10;0.10;;;7.40;99.90;;;;;;5085265;28;20466;-74
2023/01/08 09:44:59;;;;;;;0.20;0.20;;;7.40;99.90;;;;;;5098292;28;20458;-74
2023/01/08 09:47:30;;;;;;;0.47;0.47;;;7.40;99.90;;;;;;5078594;28;20434;-74
2023/01/08 09:50:03;;;;;;;0.25;0.25;;;7.50;99.90;;;;;;5091810;28;20794;-74
2023/01/08 09:52:31;;;;;;;0.38;0.38;;;7.50;99.90;;;;;;5092964;28;20529;-74
2023/01/08 09:55:00;;;;;;;0.40;0.40;;;7.50;99.90;;;;;;5082606;28;20436;-74
2023/01/08 09:57:28;;;;;;;0.20;0.20;;;7.50;99.90;;;;;;5082084;28;20910;-74
2023/01/08 09:59:55;;;;;;;0.38;0.38;;;7.50;99.90;;;;;;5085149;28;20471;-74
2023/01/08 10:02:24;;;;;;;0.95;0.55;;;7.50;99.90;;;;;;5078840;28;20429;-74
2023/01/08 10:04:59;;;;;;;0.80;0.40;;;7.50;99.90;;;;;;5101372;28;20481;-73
2023/01/08 10:07:30;;;;;;;0.50;0.50;;;7.50;99.90;;;;;;5077263;28;20490;-74
2023/01/08 10:09:56;;;;;;;0.40;0.40;;;7.60;99.90;;;;;;5077871;28;20512;-74
2023/01/08 10:12:25;;;;;;;0.75;0.68;;;7.60;99.90;;;;;;5084650;28;21237;-75
2023/01/08 10:15:04;;;;;;;0.40;0.40;;;7.60;99.90;;;;;;5077043;28;20483;-73
2023/01/08 10:17:40;;;;;;;0.33;0.33;;;7.70;99.90;;;;;;5101740;28;20439;-74
2023/01/08 10:20:22;;;;;;;0.47;0.47;;;7.80;99.90;;;;;;5084843;28;20437;-74
2023/01/08 10:22:53;;;;;;;0.50;0.40;;;7.90;99.90;;;;;;5078022;28;20545;-74
2023/01/08 10:25:25;;;;;;;0.50;0.50;;;7.90;99.90;;;;;;5096957;28;20435;-79
2023/01/08 10:27:56;;;;;;;0.30;0.30;;;8.00;99.90;;;;;;5084319;28;20493;-74
2023/01/08 10:30:36;;;;;;;0.37;0.37;;;8.00;95.10;;;;;;5082015;28;20522;-74
2023/01/08 10:33:06;;;;;;;0.40;0.25;;;8.10;76.00;;;;;;5098052;28;20432;-74
2023/01/08 10:35:37;;;;;;;0.30;0.30;;;8.10;39.70;;;;;;5094921;27;20765;-74
2023/01/08 10:38:04;;;;;;;0.50;0.40;;;8.20;7.60;;;;;;5082595;28;20863;-73
2023/01/08 10:40:36;;;;;;;0.40;0.30;;;8.30;1.00;;;;;;5087814;28;20502;-75
2023/01/08 10:43:30;;;;;;;0.40;0.40;;;8.20;1.00;;;;;;5091247;28;20432;-76
2023/01/08 10:46:03;;;;;;;0.30;0.30;;;8.30;99.90;;;;;;5094205;28;20428;-73
2023/01/08 10:48:34;;;;;;;0.30;0.30;;;8.40;99.90;;;;;;5080353;28;20510;-74
2023/01/08 10:51:05;;;;;;;0.68;0.38;;;8.50;99.90;;;;;;5091535;28;20430;-73
2023/01/08 10:53:33;;;;;;;0.50;0.50;;;8.60;99.90;;;;;;5087066;28;20514;-73
2023/01/08 10:56:02;;;;;;;0.30;0.30;;;8.70;99.90;;;;;;5095486;28;20507;-73
2023/01/08 10:58:40;;;;;;;0.70;0.65;;;8.80;99.90;;;;;;5087623;28;20438;-74
2023/01/08 11:01:24;;;;;;;0.40;0.40;;;8.80;99.90;;;;;;5090984;28;20428;-72
2023/01/08 11:03:56;;;;;;;0.93;0.43;;;8.70;99.90;;;;;;5090514;28;20433;-73
2023/01/08 11:06:26;;;;;;;0.57;0.55;;;8.60;99.90;;;;;;5094458;28;20428;-73
2023/01/08 11:08:58;;;;;;;0.20;0.20;;;8.70;99.90;;;;;;5080541;28;20843;-72
2023/01/08 11:11:32;;;;;;;0.80;0.30;;;8.80;99.90;;;;;;5080557;28;20429;-73
2023/01/08 11:14:14;;;;;;;1.80;0.50;;;9.00;89.30;;;;;;5098830;28;20428;-73
2023/01/08 11:16:42;;;;;;;0.30;0.30;;;9.10;99.90;;;;;;5079447;28;20527;-74
2023/01/08 11:19:31;;;;;;;0.50;0.50;;;9.10;99.90;;;;;;5093601;28;20456;-73
2023/01/08 11:22:21;;;;;;;0.60;0.50;;;9.00;99.90;;;;;;5068573;28;20533;-73
2023/01/08 11:24:52;;;;;;;1.20;0.87;;;9.00;99.90;;;;;;5070415;28;20427;-73
2023/01/08 11:27:33;;;;;;;0.30;0.30;;;9.00;99.90;;;;;;5088738;28;20445;-74
2023/01/08 11:30:05;;;;;;;0.32;0.32;;;8.90;99.90;;;;;;5093856;28;20434;-74
2023/01/08 11:32:38;;;;;;;0.30;0.30;;;8.80;99.90;;;;;;5088516;28;20512;-75
2023/01/08 11:35:23;;;;;;;0.43;0.43;;;8.80;99.90;;;;;;5086942;28;20432;-74
2023/01/08 11:38:00;;;;;;;0.55;0.55;;;8.80;99.90;;;;;;5070841;28;22260;-74
2023/01/08 11:40:33;;;;;;;0.55;0.55;;;8.80;99.90;;;;;;5084588;28;20433;-74
2023/01/08 11:43:30;;;;;;;0.30;0.30;;;9.00;99.90;;;;;;5080662;28;20520;-75
2023/01/08 11:46:05;;;;;;;0.28;0.28;;;9.10;99.90;;;;;;5085581;28;20425;-74
2023/01/08 11:48:56;;;;;;;0.30;0.30;;;9.10;99.90;;;;;;5092244;28;20434;-74
2023/01/08 11:51:50;;;;;;;0.40;0.30;;;9.10;99.90;;;;;;5092696;28;20424;-75
2023/01/08 11:54:42;;;;;;;0.38;0.38;;;9.20;99.90;;;;;;5088403;28;20479;-73
2023/01/08 11:57:38;;;;;;;0.52;0.52;;;9.30;99.90;;;;;;5076394;28;20419;-75
2023/01/08 12:00:50;;;;;;;0.20;0.20;;;9.30;99.90;;;;;;5078203;28;20426;-74
2023/01/08 12:03:37;;;;;;;0.50;0.50;;;9.40;99.90;;;;;;5097468;28;20483;-74
2023/01/08 12:06:09;;;;;;;0.55;0.55;;;9.40;99.90;;;;;;5092204;28;20424;-75
2023/01/08 12:08:53;;;;;;;0.90;0.50;;;9.40;99.90;;;;;;5113392;28;20506;-74
2023/01/08 12:11:51;;;;;;;0.30;0.30;;;9.30;99.90;;;;;;5087255;28;20427;-75
2023/01/08 12:14:32;;;;;;;0.30;0.30;;;9.30;99.90;;;;;;5100133;28;20424;-74
2023/01/08 12:17:44;;;;;;;0.30;0.30;;;9.30;99.90;;;;;;5091614;28;20447;-75
2023/01/08 12:20:27;;;;;;;0.30;0.30;;;9.30;99.90;;;;;;5096285;28;20464;-74
2023/01/08 12:23:06;;;;;;;0.35;0.35;;;9.30;99.90;;;;;;5090057;28;21025;-74
2023/01/08 12:25:51;;;;;;;0.20;0.20;;;9.30;99.90;;;;;;5075664;28;20457;-74
2023/01/08 12:28:42;;;;;;;0.40;0.30;;;9.30;99.90;;;;;;5092363;28;20437;-75
2023/01/08 12:31:12;;;;;;;0.15;0.15;;;9.40;99.90;;;;;;5088071;28;20437;-74
2023/01/08 12:33:41;;;;;;;0.22;0.22;;;9.50;99.90;;;;;;5099475;28;20428;-74
2023/01/08 12:36:13;;;;;;;0.25;0.25;;;9.70;99.90;;;;;;5110416;28;20428;-75
2023/01/08 12:38:43;;;;;;;1.20;0.30;;;9.60;99.90;;;;;;5102917;28;20424;-74
2023/01/08 12:41:18;;;;;;;0.50;0.50;;;9.60;99.90;;;;;;5078794;28;20807;-74
2023/01/08 12:43:54;;;;;;;0.10;0.10;;;9.60;99.90;;;;;;5092718;28;20434;-74
2023/01/08 12:46:23;;;;;;;0.10;0.10;;;9.60;99.90;;;;;;5096739;28;20456;-74
2023/01/08 12:48:56;;;;;;;0.20;0.20;;;9.60;99.90;;;;;;5098952;28;20428;-75
2023/01/08 12:51:58;;;;;;;0.30;0.20;;;9.60;99.90;;;;;;5089989;28;20427;-75
2023/01/08 12:54:32;;;;;;;0.17;0.17;;;9.60;99.90;;;;;;5112406;28;20452;-75
2023/01/08 12:57:15;;;;;;;0.20;0.20;;;9.60;99.90;;;;;;5094675;28;20442;-75
2023/01/08 12:59:50;;;;;;;0.20;0.20;;;9.50;99.90;;;;;;5082569;28;20424;-77
2023/01/08 13:02:17;;;;;;;0.20;0.20;;;9.50;99.90;;;;;;5087997;28;20484;-75
2023/01/08 13:04:46;;;;;;;0.40;0.30;;;9.40;99.90;;;;;;5103381;28;20423;-77
2023/01/08 13:07:20;;;;;;;0.40;0.40;;;9.40;99.90;;;;;;5101742;27;20485;-77
2023/01/08 13:10:06;;;;;;;0.30;0.30;;;9.40;99.90;;;;;;5072250;28;20428;-75
2023/01/08 13:12:38;;;;;;;0.30;0.30;;;9.40;99.90;;;;;;5088391;28;20430;-78
2023/01/08 13:15:07;;;;;;;0.22;0.22;;;9.30;99.90;;;;;;5085666;28;20434;-76
2023/01/08 13:17:36;;;;;;;0.22;0.22;;;9.40;99.90;;;;;;5082229;28;20439;-75
2023/01/08 13:20:07;;;;;;;0.25;0.25;;;9.50;99.90;;;;;;5079786;28;20427;-75
2023/01/08 13:22:36;;;;;;;0.20;0.20;;;9.50;99.90;;;;;;5094932;28;20436;-75